Malden, Washington
Current Conditions -  °F | °C
As of 4:58 PM on Friday 24 Oct 2014 (Local Time) from KSKA Reporting Station
Few Clouds Few Clouds  
Wind Chill: 51°   Ceiling: Unl
Heat Index: 51°   Visibility: 10mi
Dew Point: 43°   Wind: 9mph
Humidity: 75%   Direction: 30°NNE
Pressure: 30.04"   Gusts: NA
Location:  47.23°N, 117.47°W
Report Text: KSKA 242358Z AUTO 03008KT 10SM FEW120 10/06 A3004 RMK AO2 SLP182 T01030061 10118 20095 401180045 56007
Loading
Personal Weather Stations






























Interactive Weather Map
Tropical Storm Tracking
New forecast layout! Learn more

10-Day Weather Forecast

Advertisements
Track Severe Weather on mobile